Αρχική σελίδα
METAR-TAF:

METAR-TAF

Αεροδρόμια :

Φρέσνο, Καλιφόρνια, Ηνωμένες Πολιτείες Αμερικής

γεωγραφικό πλάτος: 36-46-48N, γεωγραφικό μήκος: 119-43-10W, υψόμετρο: 101 μ

Παρών καιρός

Η αναφορά έγινε 35 λεπτά πριν, στις 08:53 UTC
Άνεμος 6 kt από
Θερμοκρασία 18°C
Υγρασία 56%
Πίεση 1011 hPa
Ορατότητα: 16.1 χλμ
Καθαρός ουρανός

METAR: KFAT 190853Z 32006KT 10SM CLR 18/09 A2985 RMK AO2 SLP104 T01830089 51003

Χρόνος: 02:28 (09:28 UTC)

Πρόγνωση Καιρού

Η αναφορά έγινε 4 ώρες και 8 λεπτά πριν, στις 05:20 UTC
Η πρόγνωση ισχύει από τις 19 στις 06 UTC έως τις 20 στις 06 UTC
Άνεμος 8 kt από
Ορατότητα: 10 χλμ
Καθαρός ουρανός

TAF: KFAT 190520Z 1906/2006 31008KT P6SM SKC

Μετεωρολογικές αναφορές και προγνώσεις για περισσότερα από 4000 αεροδρόμια (δελτία METAR και TAF).

Οι διαθέσιμοι σταθμοί απεικονίζονται στο χάρτη με κίτρινες και κόκκινες κουκκίδες.

Μετακινήστε το ποντίκι πάνω από τις κουκκίδες για να δείτε το όνομα του σταθμού.

Στη συνέχεια, κάντε κλικ για να δείτε τις μετεωρολογικές αναφορές και τις προγνώσεις καιρού.

Για να αλλάξετε το χάρτη: κάντε κλικ στα πράσινα κουμπιά με τον μαύρο σταυρό για να ζουμάρετε, στο πράσινο κουμπί με την παύλα για να αφαιρέσετε το ζουμ ή στα πράσινα βέλη για να αντιπαραβάλλετε χάρτες.


METAR-TAF: